Terminal Aerodrome Forecast
Issued by NWS

Home | Current Version | Previous Version | Text Only | Print | Product List | Glossary On
Versions: 1 2 3 4 5 6 7 8 9 10 11 12 13
000
FTPA31 PHFO 082329
TAFHJR
TAF
PHJR 082329Z 0900/0924 18007KT P6SM VCSH SCT015 SCT035 BKN050
     FM091100 VRB04KT P6SM VCSH SCT025 BKN050
     FM092000 18007KT P6SM SCT025 BKN050=

USA.gov is the U.S. government's official web portal to all federal, state and local government web resources and services.